sensor_id;sensor_type;location;lat;lon;timestamp;pressure;altitude;pressure_sealevel;temperature;humidity
63115;BME280;49208;50.874;6.466;2023-02-28T07:03:14;101820.97;;;-2.89;86.54
63115;BME280;49208;50.874;6.466;2023-02-28T07:05:40;101824.59;;;-2.85;86.55
63115;BME280;49208;50.874;6.466;2023-02-28T07:08:06;101831.72;;;-2.81;86.14
63115;BME280;49208;50.874;6.466;2023-02-28T07:10:33;101828.59;;;-2.72;85.81
63115;BME280;49208;50.874;6.466;2023-02-28T07:12:59;101818.41;;;-2.66;85.36
63115;BME280;49208;50.874;6.466;2023-02-28T07:15:24;101826.56;;;-2.58;85.17
63115;BME280;49208;50.874;6.466;2023-02-28T07:17:50;101833.91;;;-2.48;84.28
63115;BME280;49208;50.874;6.466;2023-02-28T07:20:16;101835.34;;;-2.34;83.98
63115;BME280;49208;50.874;6.466;2023-02-28T07:22:41;101832.56;;;-2.16;82.93
63115;BME280;49208;50.874;6.466;2023-02-28T07:25:07;101830.84;;;-1.93;81.70
63115;BME280;49208;50.874;6.466;2023-02-28T07:27:33;101835.72;;;-1.55;80.94
63115;BME280;49208;50.874;6.466;2023-02-28T07:29:59;101833.91;;;-1.07;78.12
63115;BME280;49208;50.874;6.466;2023-02-28T07:32:27;101829.06;;;-0.43;75.85
63115;BME280;49208;50.874;6.466;2023-02-28T07:34:52;101826.34;;;0.42;71.59
63115;BME280;49208;50.874;6.466;2023-02-28T07:37:18;101822.06;;;1.47;67.01
63115;BME280;49208;50.874;6.466;2023-02-28T07:39:43;101817.00;;;2.35;61.68
63115;BME280;49208;50.874;6.466;2023-02-28T07:42:09;101817.75;;;3.23;58.84
63115;BME280;49208;50.874;6.466;2023-02-28T07:44:36;101820.81;;;4.12;57.03
63115;BME280;49208;50.874;6.466;2023-02-28T07:47:09;101817.66;;;4.41;55.09
63115;BME280;49208;50.874;6.466;2023-02-28T07:49:36;101818.00;;;4.70;51.63
63115;BME280;49208;50.874;6.466;2023-02-28T07:52:03;101812.88;;;4.87;51.34
63115;BME280;49208;50.874;6.466;2023-02-28T07:54:29;101811.00;;;5.87;50.45
63115;BME280;49208;50.874;6.466;2023-02-28T07:56:54;101810.47;;;6.54;48.07
63115;BME280;49208;50.874;6.466;2023-02-28T07:59:20;101807.06;;;7.24;45.48
63115;BME280;49208;50.874;6.466;2023-02-28T08:01:45;101812.16;;;8.24;44.09
63115;BME280;49208;50.874;6.466;2023-02-28T08:04:10;101805.31;;;9.31;40.20
63115;BME280;49208;50.874;6.466;2023-02-28T08:06:36;101801.94;;;10.04;37.74
63115;BME280;49208;50.874;6.466;2023-02-28T08:09:01;101801.97;;;10.02;37.29
63115;BME280;49208;50.874;6.466;2023-02-28T08:11:27;101811.16;;;10.49;37.29
63115;BME280;49208;50.874;6.466;2023-02-28T08:13:52;101806.78;;;10.47;35.89
63115;BME280;49208;50.874;6.466;2023-02-28T08:16:17;101805.91;;;10.46;35.20
63115;BME280;49208;50.874;6.466;2023-02-28T08:18:49;101810.84;;;11.31;34.78
63115;BME280;49208;50.874;6.466;2023-02-28T08:21:15;101806.84;;;11.56;33.37
63115;BME280;49208;50.874;6.466;2023-02-28T08:23:40;101809.13;;;11.27;33.50
63115;BME280;49208;50.874;6.466;2023-02-28T08:26:06;101810.88;;;11.80;33.99
63115;BME280;49208;50.874;6.466;2023-02-28T08:28:31;101807.63;;;11.11;32.66
63115;BME280;49208;50.874;6.466;2023-02-28T08:30:57;101807.28;;;12.29;35.24
63115;BME280;49208;50.874;6.466;2023-02-28T08:33:23;101809.56;;;12.47;31.38
63115;BME280;49208;50.874;6.466;2023-02-28T08:35:55;101808.28;;;13.03;31.69
63115;BME280;49208;50.874;6.466;2023-02-28T08:38:21;101807.75;;;12.49;31.29
63115;BME280;49208;50.874;6.466;2023-02-28T08:40:47;101806.28;;;10.81;31.52
63115;BME280;49208;50.874;6.466;2023-02-28T08:43:12;101813.09;;;10.40;32.93
63115;BME280;49208;50.874;6.466;2023-02-28T08:45:37;101816.56;;;11.08;32.42
63115;BME280;49208;50.874;6.466;2023-02-28T08:48:03;101811.22;;;10.48;33.78
63115;BME280;49208;50.874;6.466;2023-02-28T08:50:28;101808.75;;;11.49;31.27
63115;BME280;49208;50.874;6.466;2023-02-28T08:52:54;101806.81;;;11.06;31.86
63115;BME280;49208;50.874;6.466;2023-02-28T08:55:19;101799.06;;;11.45;33.13
63115;BME280;49208;50.874;6.466;2023-02-28T08:57:44;101812.16;;;11.57;32.62
63115;BME280;49208;50.874;6.466;2023-02-28T09:00:10;101810.75;;;11.87;31.31
63115;BME280;49208;50.874;6.466;2023-02-28T09:02:39;101816.03;;;10.83;31.42
63115;BME280;49208;50.874;6.466;2023-02-28T09:05:05;101813.25;;;10.91;32.04
63115;BME280;49208;50.874;6.466;2023-02-28T09:07:30;101819.81;;;9.94;32.66
63115;BME280;49208;50.874;6.466;2023-02-28T09:09:56;101814.91;;;10.36;32.40
63115;BME280;49208;50.874;6.466;2023-02-28T09:12:26;101814.69;;;9.73;33.75
63115;BME280;49208;50.874;6.466;2023-02-28T09:14:52;101811.63;;;9.20;32.07
63115;BME280;49208;50.874;6.466;2023-02-28T09:17:19;101810.19;;;8.74;33.14
63115;BME280;49208;50.874;6.466;2023-02-28T09:19:44;101801.66;;;7.94;33.36
63115;BME280;49208;50.874;6.466;2023-02-28T09:22:11;101813.22;;;7.59;34.94
63115;BME280;49208;50.874;6.466;2023-02-28T09:24:37;101805.28;;;7.05;36.49
63115;BME280;49208;50.874;6.466;2023-02-28T09:27:03;101806.03;;;6.47;36.35
63115;BME280;49208;50.874;6.466;2023-02-28T09:29:29;101805.94;;;6.18;36.77
63115;BME280;49208;50.874;6.466;2023-02-28T09:31:55;101805.88;;;6.05;36.94
63115;BME280;49208;50.874;6.466;2023-02-28T09:34:23;101802.13;;;5.73;37.50
63115;BME280;49208;50.874;6.466;2023-02-28T09:36:49;101799.25;;;5.36;38.86
63115;BME280;49208;50.874;6.466;2023-02-28T09:39:15;101801.09;;;5.46;38.36
63115;BME280;49208;50.874;6.466;2023-02-28T09:41:45;101790.56;;;5.52;40.10
63115;BME280;49208;50.874;6.466;2023-02-28T09:44:38;101790.56;;;5.52;37.69
63115;BME280;49208;50.874;6.466;2023-02-28T09:47:12;101816.00;;;5.38;36.52
63115;BME280;49208;50.874;6.466;2023-02-28T09:49:42;101793.97;;;5.36;38.44
63115;BME280;49208;50.874;6.466;2023-02-28T09:52:12;101808.84;;;5.29;38.73
63115;BME280;49208;50.874;6.466;2023-02-28T09:54:38;101799.25;;;5.36;38.59
63115;BME280;49208;50.874;6.466;2023-02-28T09:57:19;101800.13;;;5.39;38.62
63115;BME280;49208;50.874;6.466;2023-02-28T10:00:13;101794.94;;;5.52;38.22
63115;BME280;49208;50.874;6.466;2023-02-28T10:05:21;101793.91;;;5.31;35.62
63115;BME280;49208;50.874;6.466;2023-02-28T10:10:46;101802.56;;;5.12;39.09
63115;BME280;49208;50.874;6.466;2023-02-28T10:13:25;101799.91;;;5.12;38.22
63115;BME280;49208;50.874;6.466;2023-02-28T10:16:12;101798.25;;;5.24;35.76
63115;BME280;49208;50.874;6.466;2023-02-28T10:18:44;101806.00;;;5.03;36.10
63115;BME280;49208;50.874;6.466;2023-02-28T10:21:21;101796.28;;;4.99;38.82
63115;BME280;49208;50.874;6.466;2023-02-28T10:23:48;101802.66;;;5.24;38.93
63115;BME280;49208;50.874;6.466;2023-02-28T10:26:17;101813.19;;;5.22;36.03
63115;BME280;49208;50.874;6.466;2023-02-28T10:28:43;101801.59;;;5.03;37.35
63115;BME280;49208;50.874;6.466;2023-02-28T10:31:15;101804.09;;;4.90;36.42
63115;BME280;49208;50.874;6.466;2023-02-28T10:33:42;101808.41;;;4.81;37.81
63115;BME280;49208;50.874;6.466;2023-02-28T10:36:14;101805.88;;;4.89;39.00
63115;BME280;49208;50.874;6.466;2023-02-28T10:38:40;101802.66;;;5.21;38.96
63115;BME280;49208;50.874;6.466;2023-02-28T10:41:16;101791.31;;;5.37;36.34
63115;BME280;49208;50.874;6.466;2023-02-28T10:43:43;101789.59;;;5.41;36.37
63115;BME280;49208;50.874;6.466;2023-02-28T10:46:11;101797.38;;;5.21;37.03
63115;BME280;49208;50.874;6.466;2023-02-28T10:48:45;101798.16;;;5.12;37.22
63115;BME280;49208;50.874;6.466;2023-02-28T10:51:16;101793.78;;;5.14;36.66
63115;BME280;49208;50.874;6.466;2023-02-28T11:03:55;101784.41;;;5.55;36.21
63115;BME280;49208;50.874;6.466;2023-02-28T11:06:26;101772.16;;;5.64;37.76
63115;BME280;49208;50.874;6.466;2023-02-28T11:08:56;101771.84;;;5.21;35.94
63115;BME280;49208;50.874;6.466;2023-02-28T11:11:24;101776.28;;;5.29;37.89
63115;BME280;49208;50.874;6.466;2023-02-28T11:13:53;101776.38;;;5.41;35.60
63115;BME280;49208;50.874;6.466;2023-02-28T11:16:20;101770.97;;;5.21;36.37
63115;BME280;49208;50.874;6.466;2023-02-28T11:18:50;101768.34;;;5.24;37.89
63115;BME280;49208;50.874;6.466;2023-02-28T11:21:26;101763.84;;;5.09;39.21
63115;BME280;49208;50.874;6.466;2023-02-28T11:24:01;101764.78;;;5.20;39.25
63115;BME280;49208;50.874;6.466;2023-02-28T11:26:44;101760.59;;;5.47;36.25
63115;BME280;49208;50.874;6.466;2023-02-28T11:29:21;101764.19;;;5.57;37.70
63115;BME280;49208;50.874;6.466;2023-02-28T11:32:13;101770.41;;;5.68;37.01
63115;BME280;49208;50.874;6.466;2023-02-28T11:34:41;101760.53;;;5.38;37.14
63115;BME280;49208;50.874;6.466;2023-02-28T11:37:19;101774.59;;;5.37;37.42
63115;BME280;49208;50.874;6.466;2023-02-28T11:39:45;101772.03;;;5.49;36.27
63115;BME280;49208;50.874;6.466;2023-02-28T11:45:15;101766.75;;;5.47;37.23
63115;BME280;49208;50.874;6.466;2023-02-28T11:47:58;101766.94;;;5.80;37.24
63115;BME280;49208;50.874;6.466;2023-02-28T11:53:23;101759.78;;;5.62;36.96
63115;BME280;49208;50.874;6.466;2023-02-28T12:04:44;101763.25;;;5.50;37.37
63115;BME280;49208;50.874;6.466;2023-02-28T12:20:38;101755.56;;;5.90;37.27
63115;BME280;49208;50.874;6.466;2023-02-28T12:23:25;101751.22;;;5.98;37.31
63115;BME280;49208;50.874;6.466;2023-02-28T12:28:38;101748.41;;;5.74;37.65
63115;BME280;49208;50.874;6.466;2023-02-28T12:31:18;101750.16;;;5.75;36.89
63115;BME280;49208;50.874;6.466;2023-02-28T12:33:50;101747.53;;;5.73;37.90
63115;BME280;49208;50.874;6.466;2023-02-28T12:36:19;101743.00;;;5.46;37.98
63115;BME280;49208;50.874;6.466;2023-02-28T12:41:51;101733.38;;;5.62;38.18
63115;BME280;49208;50.874;6.466;2023-02-28T12:46:49;101735.81;;;5.25;36.95
63115;BME280;49208;50.874;6.466;2023-02-28T12:49:21;101729.59;;;5.17;38.75
63115;BME280;49208;50.874;6.466;2023-02-28T12:51:47;101727.84;;;5.20;39.33
63115;BME280;49208;50.874;6.466;2023-02-28T12:54:19;101731.53;;;5.45;39.80
63115;BME280;49208;50.874;6.466;2023-02-28T13:07:45;101707.84;;;5.56;39.57
63115;BME280;49208;50.874;6.466;2023-02-28T13:10:16;101707.84;;;5.61;38.90
63115;BME280;49208;50.874;6.466;2023-02-28T13:12:51;101707.78;;;5.47;39.02
63115;BME280;49208;50.874;6.466;2023-02-28T13:15:22;101693.75;;;5.57;39.33
63115;BME280;49208;50.874;6.466;2023-02-28T13:17:51;101699.97;;;5.70;39.54
63115;BME280;49208;50.874;6.466;2023-02-28T13:20:20;101691.19;;;5.76;39.51
63115;BME280;49208;50.874;6.466;2023-02-28T13:22:50;101688.59;;;5.83;39.72
63115;BME280;49208;50.874;6.466;2023-02-28T13:27:51;101685.94;;;5.85;38.37
63115;BME280;49208;50.874;6.466;2023-02-28T13:33:21;101696.47;;;5.76;39.72
63115;BME280;49208;50.874;6.466;2023-02-28T13:36:10;101692.06;;;5.72;39.80
63115;BME280;49208;50.874;6.466;2023-02-28T13:38:53;101688.50;;;5.63;39.23
63115;BME280;49208;50.874;6.466;2023-02-28T13:44:20;101681.44;;;5.61;39.34
63115;BME280;49208;50.874;6.466;2023-02-28T14:02:54;101661.06;;;5.35;38.96
63115;BME280;49208;50.874;6.466;2023-02-28T14:05:25;101660.13;;;5.29;38.38
63115;BME280;49208;50.874;6.466;2023-02-28T14:07:59;101658.38;;;5.26;39.26
63115;BME280;49208;50.874;6.466;2023-02-28T14:10:31;101655.78;;;5.32;39.73
63115;BME280;49208;50.874;6.466;2023-02-28T14:15:48;101661.81;;;5.16;40.05
63115;BME280;49208;50.874;6.466;2023-02-28T14:18:18;101658.25;;;5.04;39.27
63115;BME280;49208;50.874;6.466;2023-02-28T14:20:47;101660.03;;;5.09;40.09
63115;BME280;49208;50.874;6.466;2023-02-28T14:26:33;101652.16;;;5.16;39.83
63115;BME280;49208;50.874;6.466;2023-02-28T14:37:26;101653.09;;;5.23;39.11
63115;BME280;49208;50.874;6.466;2023-02-28T14:39:53;101653.06;;;5.21;39.84
63115;BME280;49208;50.874;6.466;2023-02-28T14:44:55;101642.50;;;5.20;39.65
63115;BME280;49208;50.874;6.466;2023-02-28T14:47:23;101640.72;;;5.20;40.29
63115;BME280;49208;50.874;6.466;2023-02-28T14:49:50;101635.44;;;5.16;40.03
63115;BME280;49208;50.874;6.466;2023-02-28T14:52:28;101638.97;;;5.18;39.87
63115;BME280;49208;50.874;6.466;2023-02-28T14:55:00;101636.31;;;5.13;40.03
63115;BME280;49208;50.874;6.466;2023-02-28T14:57:31;101640.66;;;5.05;41.06
63115;BME280;49208;50.874;6.466;2023-02-28T15:00:04;101638.88;;;5.01;40.28
63115;BME280;49208;50.874;6.466;2023-02-28T15:02:36;101637.09;;;4.98;40.46
63115;BME280;49208;50.874;6.466;2023-02-28T15:07:44;101631.81;;;5.00;40.17
63115;BME280;49208;50.874;6.466;2023-02-28T15:10:15;101640.63;;;5.00;40.87
63115;BME280;49208;50.874;6.466;2023-02-28T15:12:46;101630.06;;;5.02;40.42
63115;BME280;49208;50.874;6.466;2023-02-28T15:15:17;101627.41;;;4.94;40.25
63115;BME280;49208;50.874;6.466;2023-02-28T15:17:50;101631.72;;;4.88;40.33
63115;BME280;49208;50.874;6.466;2023-02-28T15:20:18;101634.31;;;4.80;39.04
63115;BME280;49208;50.874;6.466;2023-02-28T15:22:45;101631.69;;;4.83;40.16
63115;BME280;49208;50.874;6.466;2023-02-28T15:25:15;101629.94;;;4.83;40.28
63115;BME280;49208;50.874;6.466;2023-02-28T15:27:52;101631.66;;;4.78;40.68
63115;BME280;49208;50.874;6.466;2023-02-28T15:30:29;101627.31;;;4.82;40.20
63115;BME280;49208;50.874;6.466;2023-02-28T15:35:44;101627.25;;;4.74;40.80
63115;BME280;49208;50.874;6.466;2023-02-28T15:38:36;101620.19;;;4.70;40.20
63115;BME280;49208;50.874;6.466;2023-02-28T15:41:01;101627.22;;;4.70;41.64
63115;BME280;49208;50.874;6.466;2023-02-28T15:43:37;101626.31;;;4.68;41.17
63115;BME280;49208;50.874;6.466;2023-02-28T15:46:07;101628.03;;;4.64;42.00
63115;BME280;49208;50.874;6.466;2023-02-28T15:48:42;101630.63;;;4.58;42.03
63115;BME280;49208;50.874;6.466;2023-02-28T15:53:59;101625.38;;;4.59;41.78
63115;BME280;49208;50.874;6.466;2023-02-28T15:56:31;101623.59;;;4.57;42.14
63115;BME280;49208;50.874;6.466;2023-02-28T15:58:59;101631.47;;;4.54;42.25
63115;BME280;49208;50.874;6.466;2023-02-28T16:01:28;101627.97;;;4.55;42.17
63115;BME280;49208;50.874;6.466;2023-02-28T16:04:14;101629.69;;;4.50;41.94
63115;BME280;49208;50.874;6.466;2023-02-28T16:09:16;101628.72;;;4.38;42.10
63115;BME280;49208;50.874;6.466;2023-02-28T16:11:53;101631.31;;;4.35;42.64
63115;BME280;49208;50.874;6.466;2023-02-28T16:14:23;101632.16;;;4.30;43.17
63115;BME280;49208;50.874;6.466;2023-02-28T16:16:52;101644.41;;;4.26;43.56
63115;BME280;49208;50.874;6.466;2023-02-28T16:19:19;101647.00;;;4.21;43.52
63115;BME280;49208;50.874;6.466;2023-02-28T16:21:45;101633.78;;;4.17;43.48
63115;BME280;49208;50.874;6.466;2023-02-28T16:24:12;101645.16;;;4.14;43.92
63115;BME280;49208;50.874;6.466;2023-02-28T16:26:40;101646.88;;;4.09;43.97
63115;BME280;49208;50.874;6.466;2023-02-28T16:29:07;101654.75;;;4.06;44.67
63115;BME280;49208;50.874;6.466;2023-02-28T16:31:37;101651.19;;;4.01;44.75
63115;BME280;49208;50.874;6.466;2023-02-28T16:34:02;101651.13;;;3.95;45.00
63115;BME280;49208;50.874;6.466;2023-02-28T16:36:29;101656.38;;;3.95;44.46
63115;BME280;49208;50.874;6.466;2023-02-28T16:38:54;101647.53;;;3.90;44.91
63115;BME280;49208;50.874;6.466;2023-02-28T16:41:22;101649.22;;;3.83;44.67
63115;BME280;49208;50.874;6.466;2023-02-28T16:43:51;101648.31;;;3.78;45.51
63115;BME280;49208;50.874;6.466;2023-02-28T16:46:18;101658.78;;;3.75;45.45
63115;BME280;49208;50.874;6.466;2023-02-28T16:48:45;101658.75;;;3.72;45.55
63115;BME280;49208;50.874;6.466;2023-02-28T16:51:12;101666.59;;;3.66;45.83
63115;BME280;49208;50.874;6.466;2023-02-28T16:53:38;101663.00;;;3.60;45.74
63115;BME280;49208;50.874;6.466;2023-02-28T16:56:04;101669.94;;;3.54;46.59
63115;BME280;49208;50.874;6.466;2023-02-28T16:58:32;101667.19;;;3.44;46.40
63115;BME280;49208;50.874;6.466;2023-02-28T17:01:01;101674.09;;;3.38;47.09
63115;BME280;49208;50.874;6.466;2023-02-28T17:03:28;101671.34;;;3.29;47.26
63115;BME280;49208;50.874;6.466;2023-02-28T17:05:54;101671.22;;;3.18;47.87
63115;BME280;49208;50.874;6.466;2023-02-28T17:08:19;101671.03;;;3.06;48.02
63115;BME280;49208;50.874;6.466;2023-02-28T17:10:45;101668.25;;;2.95;49.18
63115;BME280;49208;50.874;6.466;2023-02-28T17:13:10;101678.63;;;2.87;48.59
63115;BME280;49208;50.874;6.466;2023-02-28T17:15:36;101680.28;;;2.80;48.82
63115;BME280;49208;50.874;6.466;2023-02-28T17:18:03;101688.97;;;2.78;48.86
63115;BME280;49208;50.874;6.466;2023-02-28T17:20:28;101684.50;;;2.71;48.74
63115;BME280;49208;50.874;6.466;2023-02-28T17:22:55;101691.38;;;2.62;49.67
63115;BME280;49208;50.874;6.466;2023-02-28T17:25:22;101695.56;;;2.51;50.48
63115;BME280;49208;50.874;6.466;2023-02-28T17:27:47;101696.22;;;2.39;50.66
63115;BME280;49208;50.874;6.466;2023-02-28T17:32:43;101703.91;;;2.30;50.40
63115;BME280;49208;50.874;6.466;2023-02-28T17:35:09;101701.25;;;2.27;50.36
63115;BME280;49208;50.874;6.466;2023-02-28T17:37:34;101709.94;;;2.23;51.86
63115;BME280;49208;50.874;6.466;2023-02-28T17:40:00;101716.81;;;2.16;52.18
63115;BME280;49208;50.874;6.466;2023-02-28T17:42:26;101717.53;;;2.09;52.46
63115;BME280;49208;50.874;6.466;2023-02-28T17:44:51;101716.63;;;2.07;53.05
63115;BME280;49208;50.874;6.466;2023-02-28T17:47:17;101722.78;;;2.08;53.72
63115;BME280;49208;50.874;6.466;2023-02-28T17:49:42;101718.31;;;2.05;54.64
63115;BME280;49208;50.874;6.466;2023-02-28T17:52:08;101718.19;;;1.99;55.11
63115;BME280;49208;50.874;6.466;2023-02-28T17:54:33;101722.56;;;1.98;55.76
63115;BME280;49208;50.874;6.466;2023-02-28T17:56:59;101730.41;;;1.95;56.17
63115;BME280;49208;50.874;6.466;2023-02-28T17:59:24;101724.19;;;1.92;56.44
63115;BME280;49208;50.874;6.466;2023-02-28T18:01:50;101730.28;;;1.89;56.85
63115;BME280;49208;50.874;6.466;2023-02-28T18:04:15;101730.19;;;1.86;57.12
63115;BME280;49208;50.874;6.466;2023-02-28T18:06:43;101723.19;;;1.85;57.74
63115;BME280;49208;50.874;6.466;2023-02-28T18:09:30;101723.28;;;1.90;57.98
63115;BME280;49208;50.874;6.466;2023-02-28T18:11:56;101725.00;;;1.88;58.27
63115;BME280;49208;50.874;6.466;2023-02-28T18:14:23;101724.06;;;1.86;57.95
63115;BME280;49208;50.874;6.466;2023-02-28T18:16:51;101731.94;;;1.86;58.76
63115;BME280;49208;50.874;6.466;2023-02-28T18:19:17;101725.81;;;1.85;58.77
63115;BME280;49208;50.874;6.466;2023-02-28T18:21:47;101726.59;;;1.81;59.40
63115;BME280;49208;50.874;6.466;2023-02-28T18:24:14;101733.69;;;1.85;59.89
63115;BME280;49208;50.874;6.466;2023-02-28T18:26:40;101728.38;;;1.82;59.93
63115;BME280;49208;50.874;6.466;2023-02-28T18:29:07;101725.69;;;1.79;60.55
63115;BME280;49208;50.874;6.466;2023-02-28T18:31:33;101726.47;;;1.75;60.50
63115;BME280;49208;50.874;6.466;2023-02-28T18:33:59;101733.41;;;1.71;60.71
63115;BME280;49208;50.874;6.466;2023-02-28T18:36:26;101728.09;;;1.68;61.01
63115;BME280;49208;50.874;6.466;2023-02-28T18:38:52;101728.09;;;1.68;61.23
63115;BME280;49208;50.874;6.466;2023-02-28T18:41:19;101724.44;;;1.61;61.54
63115;BME280;49208;50.874;6.466;2023-02-28T18:43:46;101725.19;;;1.56;62.12
63115;BME280;49208;50.874;6.466;2023-02-28T18:46:14;101728.56;;;1.50;62.41
63115;BME280;49208;50.874;6.466;2023-02-28T18:48:40;101728.53;;;1.49;62.72
63115;BME280;49208;50.874;6.466;2023-02-28T18:51:19;101733.78;;;1.49;62.59
63115;BME280;49208;50.874;6.466;2023-02-28T18:53:45;101723.28;;;1.49;62.73
63115;BME280;49208;50.874;6.466;2023-02-28T18:56:12;101732.78;;;1.44;62.77
63115;BME280;49208;50.874;6.466;2023-02-28T18:58:39;101738.84;;;1.41;63.40
63115;BME280;49208;50.874;6.466;2023-02-28T19:01:19;101736.06;;;1.35;63.94
63115;BME280;49208;50.874;6.466;2023-02-28T19:03:46;101736.06;;;1.33;63.99
63115;BME280;49208;50.874;6.466;2023-02-28T19:06:13;101745.59;;;1.30;64.09
63115;BME280;49208;50.874;6.466;2023-02-28T19:08:38;101743.00;;;1.31;64.13
63115;BME280;49208;50.874;6.466;2023-02-28T19:11:14;101750.00;;;1.32;64.02
63115;BME280;49208;50.874;6.466;2023-02-28T19:13:41;101742.13;;;1.31;64.17
63115;BME280;49208;50.874;6.466;2023-02-28T19:16:07;101748.16;;;1.28;64.69
63115;BME280;49208;50.874;6.466;2023-02-28T19:18:33;101745.53;;;1.27;64.62
63115;BME280;49208;50.874;6.466;2023-02-28T19:20:59;101746.22;;;1.19;64.57
63115;BME280;49208;50.874;6.466;2023-02-28T19:23:26;101753.16;;;1.17;64.95
63115;BME280;49208;50.874;6.466;2023-02-28T19:25:51;101750.44;;;1.13;65.06
63115;BME280;49208;50.874;6.466;2023-02-28T19:28:16;101751.31;;;1.13;65.19
63115;BME280;49208;50.874;6.466;2023-02-28T19:30:49;101762.56;;;1.09;65.35
63115;BME280;49208;50.874;6.466;2023-02-28T19:33:18;101759.81;;;1.03;65.43
63115;BME280;49208;50.874;6.466;2023-02-28T19:35:43;101761.41;;;0.96;65.94
63115;BME280;49208;50.874;6.466;2023-02-28T19:38:09;101753.44;;;0.92;66.10
63115;BME280;49208;50.874;6.466;2023-02-28T19:40:35;101751.53;;;0.86;66.88
63115;BME280;49208;50.874;6.466;2023-02-28T19:43:00;101758.47;;;0.84;66.64
63115;BME280;49208;50.874;6.466;2023-02-28T19:45:26;101756.72;;;0.83;67.11
63115;BME280;49208;50.874;6.466;2023-02-28T19:47:53;101757.47;;;0.79;67.29
63115;BME280;49208;50.874;6.466;2023-02-28T19:50:20;101754.84;;;0.79;67.16
63115;BME280;49208;50.874;6.466;2023-02-28T19:52:45;101754.91;;;0.82;67.43
63115;BME280;49208;50.874;6.466;2023-02-28T19:55:14;101760.97;;;0.79;67.30
63115;BME280;49208;50.874;6.466;2023-02-28T19:57:40;101758.25;;;0.76;67.51
63115;BME280;49208;50.874;6.466;2023-02-28T20:00:06;101766.13;;;0.76;67.81
63115;BME280;49208;50.874;6.466;2023-02-28T20:02:32;101763.38;;;0.72;67.88
63115;BME280;49208;50.874;6.466;2023-02-28T20:04:57;101772.06;;;0.69;68.54
63115;BME280;49208;50.874;6.466;2023-02-28T20:07:24;101770.25;;;0.67;68.82
63115;BME280;49208;50.874;6.466;2023-02-28T20:09:49;101764.84;;;0.60;68.69
63115;BME280;49208;50.874;6.466;2023-02-28T20:12:15;101779.59;;;0.57;69.00
63115;BME280;49208;50.874;6.466;2023-02-28T20:14:42;101772.44;;;0.51;69.19
63115;BME280;49208;50.874;6.466;2023-02-28T20:17:07;101777.56;;;0.47;69.24
63115;BME280;49208;50.874;6.466;2023-02-28T20:19:33;101772.28;;;0.44;69.94
63115;BME280;49208;50.874;6.466;2023-02-28T20:21:58;101770.44;;;0.41;69.90
63115;BME280;49208;50.874;6.466;2023-02-28T20:24:26;101769.59;;;0.42;70.13
63115;BME280;49208;50.874;6.466;2023-02-28T20:26:52;101766.00;;;0.38;70.16
63115;BME280;49208;50.874;6.466;2023-02-28T20:29:17;101768.63;;;0.38;70.48
63115;BME280;49208;50.874;6.466;2023-02-28T20:31:43;101760.84;;;0.42;70.52
63115;BME280;49208;50.874;6.466;2023-02-28T20:34:08;101766.16;;;0.45;70.24
63115;BME280;49208;50.874;6.466;2023-02-28T20:36:34;101761.78;;;0.44;70.04
63115;BME280;49208;50.874;6.466;2023-02-28T20:39:00;101763.56;;;0.45;70.32
63115;BME280;49208;50.874;6.466;2023-02-28T20:41:25;101760.84;;;0.42;70.45
63115;BME280;49208;50.874;6.466;2023-02-28T20:43:55;101757.38;;;0.43;70.21
63115;BME280;49208;50.874;6.466;2023-02-28T20:46:23;101760.75;;;0.38;70.48
63115;BME280;49208;50.874;6.466;2023-02-28T20:48:49;101763.25;;;0.34;70.41
63115;BME280;49208;50.874;6.466;2023-02-28T20:51:14;101762.28;;;0.30;70.85
63115;BME280;49208;50.874;6.466;2023-02-28T20:53:41;101763.97;;;0.28;70.75
63115;BME280;49208;50.874;6.466;2023-02-28T20:56:10;101763.91;;;0.25;70.75
63115;BME280;49208;50.874;6.466;2023-02-28T20:58:37;101761.13;;;0.20;70.64
63115;BME280;49208;50.874;6.466;2023-02-28T21:01:05;101759.28;;;0.16;71.22
63115;BME280;49208;50.874;6.466;2023-02-28T21:03:37;101753.97;;;0.13;71.12
63115;BME280;49208;50.874;6.466;2023-02-28T21:06:04;101756.41;;;0.07;71.43
63115;BME280;49208;50.874;6.466;2023-02-28T21:08:29;101756.97;;;-0.03;71.83
63115;BME280;49208;50.874;6.466;2023-02-28T21:10:55;101763.66;;;-0.13;72.06
63115;BME280;49208;50.874;6.466;2023-02-28T21:13:21;101759.16;;;-0.18;72.64
63115;BME280;49208;50.874;6.466;2023-02-28T21:15:46;101752.81;;;-0.27;72.76
63115;BME280;49208;50.874;6.466;2023-02-28T21:18:12;101751.72;;;-0.33;73.28
63115;BME280;49208;50.874;6.466;2023-02-28T21:20:37;101749.72;;;-0.42;73.65
63115;BME280;49208;50.874;6.466;2023-02-28T21:23:02;101745.97;;;-0.52;73.97
63115;BME280;49208;50.874;6.466;2023-02-28T21:25:28;101750.09;;;-0.58;74.67
63115;BME280;49208;50.874;6.466;2023-02-28T21:27:54;101758.59;;;-0.66;74.59
63115;BME280;49208;50.874;6.466;2023-02-28T21:30:20;101748.03;;;-0.69;75.28
63115;BME280;49208;50.874;6.466;2023-02-28T21:32:46;101748.75;;;-0.74;75.10
63115;BME280;49208;50.874;6.466;2023-02-28T21:35:12;101749.50;;;-0.78;75.90
63115;BME280;49208;50.874;6.466;2023-02-28T21:37:37;101748.56;;;-0.80;75.50
63115;BME280;49208;50.874;6.466;2023-02-28T21:40:03;101750.22;;;-0.83;75.46
63115;BME280;49208;50.874;6.466;2023-02-28T21:42:28;101756.19;;;-0.87;75.97
63115;BME280;49208;50.874;6.466;2023-02-28T21:44:54;101754.31;;;-0.91;76.14
63115;BME280;49208;50.874;6.466;2023-02-28T21:47:22;101763.72;;;-0.96;76.31
63115;BME280;49208;50.874;6.466;2023-02-28T21:49:48;101751.38;;;-1.02;76.13
63115;BME280;49208;50.874;6.466;2023-02-28T21:52:13;101752.09;;;-1.06;76.81
63115;BME280;49208;50.874;6.466;2023-02-28T21:54:38;101761.63;;;-1.06;77.08
63115;BME280;49208;50.874;6.466;2023-02-28T21:57:04;101767.81;;;-1.04;76.95
63115;BME280;49208;50.874;6.466;2023-02-28T21:59:29;101758.22;;;-1.05;76.93
63115;BME280;49208;50.874;6.466;2023-02-28T22:01:55;101764.25;;;-1.06;76.90
63115;BME280;49208;50.874;6.466;2023-02-28T22:04:20;101770.41;;;-1.04;77.01